createdAt,value
2018-07-24T00:01:43.578Z,14.80
2018-07-24T00:04:13.048Z,14.80
2018-07-24T00:06:42.532Z,14.70
2018-07-24T00:09:12.101Z,14.60
2018-07-24T00:11:41.637Z,14.70
2018-07-24T00:14:11.160Z,14.60
2018-07-24T00:16:40.658Z,14.50
2018-07-24T00:19:10.146Z,14.50
2018-07-24T00:21:39.679Z,14.40
2018-07-24T00:24:09.169Z,14.40
2018-07-24T00:26:38.618Z,14.30
2018-07-24T00:29:08.117Z,14.40
2018-07-24T00:31:37.628Z,14.40
2018-07-24T00:34:07.192Z,14.30
2018-07-24T00:36:36.674Z,14.30
2018-07-24T00:39:07.799Z,14.30
2018-07-24T00:41:37.826Z,14.20
2018-07-24T00:44:07.570Z,14.20
2018-07-24T00:46:37.105Z,14.10
2018-07-24T00:49:06.608Z,14.10
2018-07-24T00:51:36.095Z,14.10
2018-07-24T00:54:05.912Z,14.00
2018-07-24T00:56:35.415Z,13.90
2018-07-24T00:59:04.981Z,13.90
2018-07-24T01:01:34.500Z,14.00
2018-07-24T01:04:04.562Z,14.00
2018-07-24T01:06:34.146Z,13.90
2018-07-24T01:09:03.783Z,13.90
2018-07-24T01:11:33.286Z,13.80
2018-07-24T01:14:02.839Z,13.80
2018-07-24T01:16:32.398Z,13.80
2018-07-24T01:19:01.894Z,13.80
2018-07-24T01:21:31.490Z,13.80
2018-07-24T01:24:01.008Z,13.80
2018-07-24T01:26:30.425Z,13.80
2018-07-24T01:28:59.905Z,13.80
2018-07-24T01:31:29.417Z,13.80
2018-07-24T01:33:58.852Z,13.70
2018-07-24T01:36:28.340Z,13.60
2018-07-24T01:38:57.841Z,13.60
2018-07-24T01:41:27.293Z,13.50
2018-07-24T01:46:25.880Z,13.50
2018-07-24T01:48:55.472Z,13.40
2018-07-24T01:51:25.003Z,13.40
2018-07-24T01:53:54.427Z,13.50
2018-07-24T01:56:23.906Z,13.40
2018-07-24T01:58:53.436Z,13.40
2018-07-24T02:01:22.931Z,13.40
2018-07-24T02:03:52.394Z,13.40
2018-07-24T02:06:21.932Z,13.40
2018-07-24T02:08:51.405Z,13.40
2018-07-24T02:11:20.895Z,13.50
2018-07-24T02:13:50.406Z,13.60
2018-07-24T02:16:20.095Z,13.60
2018-07-24T02:18:49.646Z,13.60
2018-07-24T02:21:19.135Z,13.50
2018-07-24T02:23:48.589Z,13.40
2018-07-24T02:26:18.066Z,13.40
2018-07-24T02:28:47.525Z,13.30
2018-07-24T02:31:16.994Z,13.30
2018-07-24T02:33:46.513Z,13.20
2018-07-24T02:36:16.010Z,13.20
2018-07-24T02:38:45.587Z,13.20
2018-07-24T02:41:16.082Z,13.20
2018-07-24T02:43:45.530Z,13.20
2018-07-24T02:46:15.044Z,13.10
2018-07-24T02:48:44.852Z,13.20
2018-07-24T02:53:43.262Z,13.20
2018-07-24T02:56:12.763Z,13.10
2018-07-24T02:58:42.206Z,13.20
2018-07-24T03:01:11.664Z,13.10
2018-07-24T03:03:41.427Z,13.10
2018-07-24T03:06:10.921Z,13.10
2018-07-24T03:08:40.457Z,13.00
2018-07-24T03:11:09.996Z,13.00
2018-07-24T03:13:39.439Z,13.00
2018-07-24T03:16:08.935Z,13.00
2018-07-24T03:18:38.560Z,13.00
2018-07-24T03:21:07.988Z,12.90
2018-07-24T03:23:37.476Z,12.90
2018-07-24T03:26:07.126Z,13.00
2018-07-24T03:28:36.803Z,12.90
2018-07-24T03:31:06.390Z,12.90
2018-07-24T03:33:35.919Z,12.80
2018-07-24T03:36:05.447Z,12.80
2018-07-24T03:38:34.957Z,12.80
2018-07-24T03:41:04.613Z,12.80
2018-07-24T03:43:34.113Z,12.80
2018-07-24T03:46:03.586Z,12.70
2018-07-24T03:48:33.126Z,12.80
2018-07-24T03:51:02.627Z,12.80
2018-07-24T03:53:32.151Z,12.70
2018-07-24T03:56:08.490Z,12.70
2018-07-24T03:58:38.373Z,12.70
2018-07-24T04:01:08.413Z,12.80
2018-07-24T04:03:37.966Z,12.80
2018-07-24T04:06:07.499Z,12.80
2018-07-24T04:08:36.995Z,12.80
2018-07-24T04:11:06.541Z,12.90
2018-07-24T04:13:36.025Z,12.90
2018-07-24T04:16:05.511Z,13.00
2018-07-24T04:18:39.399Z,13.00
2018-07-24T04:21:08.944Z,13.00
2018-07-24T04:23:38.358Z,13.10
2018-07-24T04:26:07.844Z,13.10
2018-07-24T04:28:37.328Z,13.10
2018-07-24T04:31:06.838Z,13.20
2018-07-24T04:33:36.336Z,13.30
2018-07-24T04:36:05.947Z,13.30
2018-07-24T04:41:05.071Z,13.40
2018-07-24T04:43:34.633Z,13.50
2018-07-24T04:46:04.175Z,13.50
2018-07-24T04:51:02.874Z,13.70
2018-07-24T04:53:32.375Z,13.70
2018-07-24T04:56:01.898Z,13.80
2018-07-24T05:01:00.881Z,14.00
2018-07-24T05:03:30.426Z,14.10
2018-07-24T05:08:29.249Z,14.30
2018-07-24T05:10:58.788Z,14.40
2018-07-24T05:13:28.262Z,14.50
2018-07-24T05:15:57.724Z,14.60
2018-07-24T05:18:27.306Z,14.80
2018-07-24T05:20:56.869Z,14.80
2018-07-24T05:23:26.380Z,14.90
2018-07-24T05:25:55.986Z,15.00
2018-07-24T05:28:25.424Z,15.10
2018-07-24T05:30:54.918Z,15.30
2018-07-24T05:33:24.442Z,15.70
2018-07-24T05:35:54.353Z,16.70
2018-07-24T05:38:23.944Z,18.00
2018-07-24T05:40:53.618Z,19.20
2018-07-24T05:43:23.124Z,20.30
2018-07-24T05:45:52.644Z,21.10
2018-07-24T05:48:22.102Z,21.60
2018-07-24T05:50:51.594Z,22.40
2018-07-24T05:53:21.239Z,23.40
2018-07-24T05:55:50.761Z,24.10
2018-07-24T05:58:20.277Z,24.60
2018-07-24T06:00:49.792Z,25.00
2018-07-24T06:03:19.346Z,25.30
2018-07-24T06:05:50.587Z,25.80
2018-07-24T06:08:20.204Z,26.40
2018-07-24T06:10:51.523Z,26.50
2018-07-24T06:13:21.163Z,26.20
2018-07-24T06:15:52.276Z,26.60
2018-07-24T06:18:22.197Z,26.60
2018-07-24T06:20:53.271Z,27.00
2018-07-24T06:23:22.874Z,26.50
2018-07-24T06:25:53.335Z,26.30
2018-07-24T06:28:23.307Z,25.60
2018-07-24T06:30:53.186Z,25.20
2018-07-24T06:33:22.822Z,24.60
2018-07-24T06:35:53.281Z,23.80
2018-07-24T06:38:22.817Z,23.10
2018-07-24T06:40:53.581Z,22.30
2018-07-24T06:43:23.067Z,21.90
2018-07-24T06:45:53.813Z,21.80
2018-07-24T06:48:23.314Z,21.50
2018-07-24T06:50:53.236Z,21.60
2018-07-24T06:53:22.922Z,21.70
2018-07-24T06:55:52.443Z,21.70
2018-07-24T06:58:21.908Z,21.60
2018-07-24T07:00:51.438Z,21.50
2018-07-24T07:03:20.914Z,21.50
2018-07-24T07:05:51.982Z,21.50
2018-07-24T07:08:21.515Z,21.60
2018-07-24T07:10:51.146Z,21.60
2018-07-24T07:13:21.022Z,21.70
2018-07-24T07:15:50.484Z,21.80
2018-07-24T07:18:19.962Z,21.80
2018-07-24T07:20:49.527Z,22.00
2018-07-24T07:23:19.069Z,22.70
2018-07-24T07:25:48.589Z,23.60
2018-07-24T07:28:18.174Z,24.10
2018-07-24T07:30:47.636Z,24.50
2018-07-24T07:33:17.150Z,24.80
2018-07-24T07:35:46.738Z,25.10
2018-07-24T07:38:16.238Z,25.60
2018-07-24T07:40:45.772Z,25.80
2018-07-24T07:43:15.359Z,25.90
2018-07-24T07:45:44.819Z,26.00
2018-07-24T07:48:14.299Z,26.10
2018-07-24T07:50:43.891Z,26.20
2018-07-24T07:53:13.348Z,26.20
2018-07-24T07:55:42.844Z,26.60
2018-07-24T07:58:12.378Z,26.70
2018-07-24T08:00:41.911Z,26.80
2018-07-24T08:03:11.384Z,27.10
2018-07-24T08:05:41.113Z,27.50
2018-07-24T08:08:10.542Z,27.70
2018-07-24T08:10:40.063Z,27.70
2018-07-24T08:13:09.654Z,27.50
2018-07-24T08:15:39.212Z,27.40
2018-07-24T08:18:08.731Z,27.30
2018-07-24T08:20:38.279Z,27.20
2018-07-24T08:23:07.814Z,27.30
2018-07-24T08:25:37.284Z,27.60
2018-07-24T08:28:07.021Z,27.80
2018-07-24T08:30:36.627Z,27.90
2018-07-24T08:33:06.164Z,27.90
2018-07-24T08:35:35.787Z,28.00
2018-07-24T08:38:05.465Z,27.90
2018-07-24T08:40:35.171Z,27.90
2018-07-24T08:43:04.692Z,27.70
2018-07-24T08:45:34.221Z,27.80
2018-07-24T08:48:03.794Z,28.20
2018-07-24T08:50:33.283Z,28.60
2018-07-24T08:53:02.855Z,28.90
2018-07-24T08:55:32.675Z,28.80
2018-07-24T08:58:01.918Z,28.60
2018-07-24T09:00:31.420Z,28.60
2018-07-24T09:03:00.935Z,28.70
2018-07-24T09:05:30.354Z,28.80
2018-07-24T09:07:59.859Z,28.80
2018-07-24T09:10:29.370Z,28.90
2018-07-24T09:12:58.853Z,29.40
2018-07-24T09:15:28.500Z,29.60
2018-07-24T09:17:57.999Z,29.50
2018-07-24T09:20:27.477Z,29.40
2018-07-24T09:22:57.096Z,29.50
2018-07-24T09:25:26.720Z,29.60
2018-07-24T09:27:56.169Z,30.10
2018-07-24T09:30:25.651Z,30.30
2018-07-24T09:32:55.522Z,30.10
2018-07-24T09:35:25.040Z,30.10
2018-07-24T09:37:54.517Z,29.90
2018-07-24T09:40:24.076Z,30.40
2018-07-24T09:42:53.557Z,30.20
2018-07-24T09:45:23.070Z,30.60
2018-07-24T09:47:52.621Z,30.70
2018-07-24T09:50:22.141Z,30.70
2018-07-24T09:52:51.598Z,30.10
2018-07-24T09:57:50.091Z,30.40
2018-07-24T10:00:23.856Z,30.80
2018-07-24T10:02:53.351Z,31.00
2018-07-24T10:05:22.857Z,31.00
2018-07-24T10:07:52.372Z,31.10
2018-07-24T10:10:21.951Z,31.30
2018-07-24T10:12:51.488Z,31.40
2018-07-24T10:15:21.019Z,31.70
2018-07-24T10:17:50.552Z,31.60
2018-07-24T10:20:20.130Z,31.80
2018-07-24T10:22:49.584Z,31.80
2018-07-24T10:25:19.068Z,31.40
2018-07-24T10:27:48.690Z,31.20
2018-07-24T10:30:18.201Z,31.00
2018-07-24T10:32:47.688Z,31.20
2018-07-24T10:35:17.289Z,31.40
2018-07-24T10:37:48.652Z,31.90
2018-07-24T10:40:18.198Z,32.00
2018-07-24T10:42:47.724Z,32.40
2018-07-24T10:45:17.245Z,32.20
2018-07-24T10:47:46.702Z,31.30
2018-07-24T10:50:16.343Z,31.50
2018-07-24T10:52:45.891Z,31.50
2018-07-24T10:55:15.367Z,31.90
2018-07-24T10:57:44.877Z,32.50
2018-07-24T11:00:14.400Z,33.00
2018-07-24T11:02:43.928Z,32.80
2018-07-24T11:05:13.380Z,32.60
2018-07-24T11:07:42.824Z,32.70
2018-07-24T11:10:12.388Z,33.60
2018-07-24T11:12:41.859Z,34.00
2018-07-24T11:15:11.285Z,34.80
2018-07-24T11:17:40.814Z,34.80
2018-07-24T11:20:10.282Z,34.20
2018-07-24T11:22:39.907Z,33.90
2018-07-24T11:25:09.310Z,34.10
2018-07-24T11:27:38.882Z,33.70
2018-07-24T11:30:08.361Z,33.60
2018-07-24T11:32:37.861Z,33.90
2018-07-24T11:35:07.367Z,34.10
2018-07-24T11:37:36.865Z,34.50
2018-07-24T11:40:06.409Z,34.50
2018-07-24T11:42:35.849Z,34.70
2018-07-24T11:47:34.888Z,34.50
2018-07-24T11:50:04.708Z,34.30
2018-07-24T11:52:34.203Z,33.70
2018-07-24T11:55:03.782Z,33.60
2018-07-24T11:57:33.556Z,34.20
2018-07-24T12:00:03.147Z,34.20
2018-07-24T12:02:32.690Z,34.20
2018-07-24T12:05:02.205Z,34.60
2018-07-24T12:07:31.723Z,34.50
2018-07-24T12:10:01.171Z,34.40
2018-07-24T12:12:30.681Z,33.90
2018-07-24T12:15:03.753Z,34.20
2018-07-24T12:17:33.353Z,34.90
2018-07-24T12:20:02.953Z,34.90
2018-07-24T12:22:32.395Z,35.10
2018-07-24T12:25:01.957Z,35.10
2018-07-24T12:27:31.508Z,35.10
2018-07-24T12:30:01.388Z,35.20
2018-07-24T12:32:31.696Z,35.30
2018-07-24T12:35:01.182Z,35.60
2018-07-24T12:37:31.175Z,36.20
2018-07-24T12:40:01.597Z,37.20
2018-07-24T12:42:31.085Z,37.20
2018-07-24T12:45:00.501Z,37.20
2018-07-24T12:47:30.000Z,37.00
2018-07-24T12:49:59.541Z,36.80
2018-07-24T12:52:29.099Z,36.90
2018-07-24T12:54:58.558Z,36.50
2018-07-24T12:57:28.590Z,36.60
2018-07-24T13:02:28.092Z,36.70
2018-07-24T13:04:57.987Z,36.80
2018-07-24T13:07:27.747Z,36.60
2018-07-24T13:09:57.369Z,36.90
2018-07-24T13:12:26.886Z,37.20
2018-07-24T13:14:56.471Z,37.20
2018-07-24T13:17:25.997Z,37.40
2018-07-24T13:19:55.545Z,37.40
2018-07-24T13:22:25.037Z,36.90
2018-07-24T13:24:54.512Z,36.70
2018-07-24T13:27:24.001Z,36.70
2018-07-24T13:29:53.459Z,36.30
2018-07-24T13:32:23.051Z,36.70
2018-07-24T13:34:52.510Z,37.40
2018-07-24T13:37:21.978Z,37.10
2018-07-24T13:39:51.464Z,36.30
2018-07-24T13:42:21.103Z,36.40
2018-07-24T13:44:50.647Z,36.10
2018-07-24T13:47:20.197Z,36.50
2018-07-24T13:49:49.707Z,36.90
2018-07-24T13:52:19.232Z,36.40
2018-07-24T13:54:49.017Z,35.50
2018-07-24T13:57:18.531Z,35.30
2018-07-24T13:59:47.984Z,35.50
2018-07-24T14:02:17.472Z,35.50
2018-07-24T14:04:47.046Z,35.50
2018-07-24T14:07:16.494Z,35.50
2018-07-24T14:09:45.970Z,35.70
2018-07-24T14:12:15.469Z,35.90
2018-07-24T14:14:45.681Z,35.90
2018-07-24T14:17:15.403Z,36.20
2018-07-24T14:19:45.091Z,36.10
2018-07-24T14:22:14.676Z,36.10
2018-07-24T14:24:44.939Z,36.80
2018-07-24T14:27:14.514Z,36.60
2018-07-24T14:29:44.097Z,36.70
2018-07-24T14:32:13.815Z,36.30
2018-07-24T14:34:43.407Z,36.60
2018-07-24T14:37:13.041Z,37.10
2018-07-24T14:39:42.599Z,36.50
2018-07-24T14:44:41.674Z,36.30
2018-07-24T14:47:11.296Z,36.40
2018-07-24T14:49:40.865Z,36.70
2018-07-24T14:52:10.509Z,37.50
2018-07-24T14:54:40.268Z,37.20
2018-07-24T14:57:09.846Z,37.00
2018-07-24T14:59:39.433Z,36.80
2018-07-24T15:02:11.965Z,37.00
2018-07-24T15:04:42.522Z,36.90
2018-07-24T15:07:12.046Z,36.60
2018-07-24T15:12:10.737Z,37.40
2018-07-24T15:14:40.293Z,37.30
2018-07-24T15:17:10.185Z,37.60
2018-07-24T15:19:39.762Z,37.40
2018-07-24T15:22:09.475Z,36.80
2018-07-24T15:24:39.101Z,36.20
2018-07-24T15:27:08.701Z,36.40
2018-07-24T15:29:38.316Z,36.70
2018-07-24T15:32:07.989Z,36.90
2018-07-24T15:34:37.689Z,36.60
2018-07-24T15:37:07.699Z,36.40
2018-07-24T15:39:37.538Z,36.50
2018-07-24T15:42:07.602Z,36.40
2018-07-24T15:44:37.213Z,36.60
2018-07-24T15:47:07.028Z,35.90
2018-07-24T15:49:36.632Z,35.80
2018-07-24T15:52:06.475Z,35.40
2018-07-24T15:54:36.060Z,35.00
2018-07-24T15:57:05.621Z,34.60
2018-07-24T15:59:35.261Z,34.70
2018-07-24T16:02:05.031Z,34.70
2018-07-24T16:04:34.615Z,34.50
2018-07-24T16:07:04.370Z,34.10
2018-07-24T16:09:33.999Z,34.10
2018-07-24T16:12:03.960Z,33.80
2018-07-24T16:14:33.526Z,34.20
2018-07-24T16:17:03.226Z,34.60
2018-07-24T16:19:32.890Z,34.70
2018-07-24T16:22:11.053Z,34.60
2018-07-24T16:24:40.728Z,34.70
2018-07-24T16:27:10.598Z,34.50
2018-07-24T16:29:40.261Z,33.90
2018-07-24T16:32:09.910Z,33.60
2018-07-24T16:34:39.447Z,32.90
2018-07-24T16:37:09.191Z,32.30
2018-07-24T16:39:38.814Z,31.90
2018-07-24T16:42:08.785Z,31.40
2018-07-24T16:44:38.612Z,31.00
2018-07-24T16:47:08.783Z,30.40
2018-07-24T16:49:38.512Z,29.90
2018-07-24T16:52:08.071Z,29.20
2018-07-24T16:54:37.637Z,28.80
2018-07-24T16:57:07.296Z,28.40
2018-07-24T16:59:37.293Z,28.10
2018-07-24T17:02:07.091Z,27.90
2018-07-24T17:04:36.705Z,27.60
2018-07-24T17:07:06.592Z,27.50
2018-07-24T17:09:36.352Z,27.40
2018-07-24T17:12:06.480Z,27.30
2018-07-24T17:14:36.050Z,27.10
2018-07-24T17:17:05.814Z,27.00
2018-07-24T17:19:35.370Z,26.90
2018-07-24T17:22:05.036Z,26.80
2018-07-24T17:24:34.645Z,26.70
2018-07-24T17:27:04.253Z,26.50
2018-07-24T17:29:33.830Z,26.40
2018-07-24T17:32:03.808Z,26.30
2018-07-24T17:34:33.418Z,26.20
2018-07-24T17:37:03.059Z,26.20
2018-07-24T17:39:32.695Z,26.10
2018-07-24T17:42:02.349Z,26.00
2018-07-24T17:44:31.996Z,26.00
2018-07-24T17:47:01.796Z,25.90
2018-07-24T17:49:31.980Z,25.80
2018-07-24T17:52:07.866Z,25.80
2018-07-24T17:54:37.471Z,25.60
2018-07-24T17:57:07.031Z,25.50
2018-07-24T17:59:36.567Z,25.40
2018-07-24T18:02:06.286Z,25.30
2018-07-24T18:04:35.886Z,25.10
2018-07-24T18:07:05.551Z,25.10
2018-07-24T18:09:35.239Z,25.00
2018-07-24T18:12:04.855Z,25.00
2018-07-24T18:14:34.494Z,24.90
2018-07-24T18:17:04.176Z,24.80
2018-07-24T18:19:33.828Z,24.80
2018-07-24T18:22:03.375Z,24.70
2018-07-24T18:24:33.680Z,24.60
2018-07-24T18:27:04.068Z,24.50
2018-07-24T18:29:34.350Z,24.30
2018-07-24T18:32:05.400Z,24.20
2018-07-24T18:34:35.717Z,24.10
2018-07-24T18:37:06.023Z,23.90
2018-07-24T18:39:37.946Z,23.80
2018-07-24T18:42:07.948Z,23.70
2018-07-24T18:44:37.730Z,23.50
2018-07-24T18:49:36.368Z,23.10
2018-07-24T18:52:06.012Z,22.80
2018-07-24T18:54:35.617Z,22.70
2018-07-24T18:57:05.250Z,22.50
2018-07-24T18:59:34.903Z,22.40
2018-07-24T19:02:04.572Z,22.20
2018-07-24T19:04:34.178Z,22.10
2018-07-24T19:07:03.768Z,22.00
2018-07-24T19:09:33.897Z,21.90
2018-07-24T19:12:03.556Z,21.70
2018-07-24T19:14:34.115Z,21.60
2018-07-24T19:17:03.778Z,21.50
2018-07-24T19:19:33.379Z,21.30
2018-07-24T19:22:03.048Z,21.20
2018-07-24T19:24:33.593Z,21.10
2018-07-24T19:27:03.247Z,21.00
2018-07-24T19:29:32.999Z,20.90
2018-07-24T19:32:02.817Z,20.80
2018-07-24T19:34:32.464Z,20.70
2018-07-24T19:37:02.013Z,20.50
2018-07-24T19:39:31.801Z,20.30
2018-07-24T19:42:01.784Z,20.30
2018-07-24T19:44:31.436Z,20.10
2018-07-24T19:47:01.100Z,20.10
2018-07-24T19:49:32.561Z,20.00
2018-07-24T19:52:02.436Z,20.00
2018-07-24T19:54:32.057Z,19.90
2018-07-24T19:57:01.634Z,19.80
2018-07-24T19:59:31.305Z,19.70
2018-07-24T20:02:00.955Z,19.70
2018-07-24T20:04:30.544Z,19.60
2018-07-24T20:07:00.232Z,19.50
2018-07-24T20:09:29.808Z,19.10
2018-07-24T20:11:59.371Z,19.00
2018-07-24T20:14:29.021Z,18.80
2018-07-24T20:16:58.605Z,18.70
2018-07-24T20:19:28.364Z,18.60
2018-07-24T20:21:58.152Z,18.60
2018-07-24T20:24:28.108Z,18.50
2018-07-24T20:26:57.963Z,18.30
2018-07-24T20:29:27.611Z,18.20
2018-07-24T20:31:57.208Z,18.10
2018-07-24T20:34:26.837Z,18.00
2018-07-24T20:36:56.583Z,17.90
2018-07-24T20:39:26.191Z,17.90
2018-07-24T20:44:25.040Z,17.60
2018-07-24T20:46:54.783Z,17.50
2018-07-24T20:49:24.400Z,17.50
2018-07-24T20:51:54.498Z,17.40
2018-07-24T20:54:24.189Z,17.30
2018-07-24T20:56:53.817Z,17.20
2018-07-24T20:59:23.382Z,17.20
2018-07-24T21:01:53.601Z,17.20
2018-07-24T21:04:23.494Z,17.10
2018-07-24T21:06:53.128Z,17.10
2018-07-24T21:09:22.793Z,17.10
2018-07-24T21:11:52.354Z,17.10
2018-07-24T21:14:22.827Z,16.90
2018-07-24T21:16:53.136Z,16.90
2018-07-24T21:21:51.672Z,16.90
2018-07-24T21:24:22.925Z,16.80
2018-07-24T21:26:52.576Z,16.80
2018-07-24T21:29:23.993Z,16.70
2018-07-24T21:31:53.570Z,16.60
2018-07-24T21:34:24.561Z,16.60
2018-07-24T21:36:54.215Z,16.50
2018-07-24T21:39:23.707Z,16.40
2018-07-24T21:41:53.218Z,16.40
2018-07-24T21:44:22.763Z,16.30
2018-07-24T21:46:52.234Z,16.30
2018-07-24T21:49:22.852Z,16.30
2018-07-24T21:51:52.319Z,16.20
2018-07-24T21:54:22.250Z,16.20
2018-07-24T21:56:52.312Z,16.10
2018-07-24T21:59:22.062Z,16.10
2018-07-24T22:01:51.544Z,16.10
2018-07-24T22:04:21.292Z,16.20
2018-07-24T22:06:50.753Z,16.20
2018-07-24T22:09:20.250Z,16.10
2018-07-24T22:11:50.049Z,16.00
2018-07-24T22:14:19.560Z,16.00
2018-07-24T22:16:49.426Z,15.90
2018-07-24T22:19:19.024Z,15.80
2018-07-24T22:21:48.479Z,15.80
2018-07-24T22:24:18.372Z,15.70
2018-07-24T22:26:48.594Z,15.70
2018-07-24T22:29:18.634Z,15.60
2018-07-24T22:31:48.082Z,15.60
2018-07-24T22:34:17.682Z,15.50
2018-07-24T22:36:47.454Z,15.50
2018-07-24T22:39:16.961Z,15.50
2018-07-24T22:41:46.402Z,15.50
2018-07-24T22:44:16.212Z,15.50
2018-07-24T22:46:45.752Z,15.50
2018-07-24T22:49:15.277Z,15.50
2018-07-24T22:51:45.030Z,15.40
2018-07-24T22:54:14.540Z,15.40
2018-07-24T22:56:44.322Z,15.30
2018-07-24T22:59:14.303Z,15.30
2018-07-24T23:01:43.778Z,15.30
2018-07-24T23:06:42.195Z,15.20
2018-07-24T23:11:41.043Z,15.20
2018-07-24T23:14:10.498Z,15.20
2018-07-24T23:16:39.980Z,15.20
2018-07-24T23:19:09.496Z,15.10
2018-07-24T23:21:38.932Z,15.10
2018-07-24T23:24:08.453Z,15.10
2018-07-24T23:26:37.992Z,15.10
2018-07-24T23:29:07.545Z,15.10
2018-07-24T23:31:37.119Z,15.00
2018-07-24T23:34:06.636Z,15.00
2018-07-24T23:36:36.196Z,15.00
2018-07-24T23:39:08.168Z,14.90
2018-07-24T23:41:37.636Z,14.90
2018-07-24T23:44:07.517Z,14.80
2018-07-24T23:46:37.304Z,14.80
2018-07-24T23:49:06.869Z,14.80
2018-07-24T23:51:36.367Z,14.70
2018-07-24T23:54:05.933Z,14.80
2018-07-24T23:59:04.410Z,14.70
